Time;durP1;ratioP1;P1;durP2;ratioP2;P2;SDS_P1;SDS_P2;PMS_P1;PMS_P2;Temp;Humidity;BMP_temperature;BMP_pressure;BME280_temperature;BME280_humidity;BME280_pressure;Samples;Min_cycle;Max_cycle;Signal;HPM_P1;HPM_P2
2021/09/21 00:02:01;;;;;;;5.50;2.20;;;;;;;10.60;75.10;99885.19;1675548;84;21835;-72
2021/09/21 00:04:27;;;;;;;2.10;1.80;;;;;;;10.60;75.06;99881.23;1672415;85;21045;-72
2021/09/21 00:06:57;;;;;;;4.80;2.50;;;;;;;10.62;75.07;99888.21;1676425;85;21044;-72
2021/09/21 00:09:23;;;;;;;4.12;2.12;;;;;;;10.62;75.10;99881.13;1676779;84;21535;-72
2021/09/21 00:11:51;;;;;;;3.27;2.30;;;;;;;10.60;75.15;99890.47;1677117;85;21061;-72
2021/09/21 00:14:19;;;;;;;4.62;2.33;;;;;;;10.56;75.23;99887.77;1676849;85;22220;-72
2021/09/21 00:16:45;;;;;;;4.50;2.30;;;;;;;10.53;75.24;99887.20;1675216;84;21471;-71
2021/09/21 00:19:14;;;;;;;3.65;2.40;;;;;;;10.49;75.42;99881.82;1676927;85;21047;-72
2021/09/21 00:21:40;;;;;;;3.15;2.67;;;;;;;10.48;75.45;99880.16;1643016;86;21043;-71
2021/09/21 00:24:08;;;;;;;3.72;2.58;;;;;;;10.48;75.54;99880.16;1677030;82;21009;-72
2021/09/21 00:26:35;;;;;;;2.58;2.15;;;;;;;10.48;75.56;99879.66;1676819;85;21460;-71
2021/09/21 00:29:03;;;;;;;2.72;2.22;;;;;;;10.46;75.59;99885.57;1677001;85;21048;-71
2021/09/21 00:31:37;;;;;;;2.62;2.20;;;;;;;10.45;75.62;99885.70;1675315;85;21008;-72
2021/09/21 00:34:12;;;;;;;2.58;1.85;;;;;;;10.45;75.63;99885.70;1675401;85;21436;-72
2021/09/21 00:36:41;;;;;;;2.75;1.90;;;;;;;10.46;75.57;99883.42;1676840;85;21016;-72
2021/09/21 00:39:11;;;;;;;2.70;1.52;;;;;;;10.43;75.45;99883.20;1671456;84;22441;-72
2021/09/21 00:41:39;;;;;;;3.80;1.70;;;;;;;10.41;75.21;99886.92;1676103;85;21006;-72
2021/09/21 00:44:06;;;;;;;1.70;1.50;;;;;;;10.38;75.08;99890.67;1673740;85;21037;-72
2021/09/21 00:46:32;;;;;;;1.72;1.20;;;;;;;10.29;74.55;99890.14;1676613;85;21491;-72
2021/09/21 00:49:00;;;;;;;2.17;1.50;;;;;;;10.24;74.65;99891.04;1653683;85;21005;-71
2021/09/21 00:51:27;;;;;;;2.90;1.52;;;;;;;10.22;74.63;99892.46;1677351;84;22789;-72
2021/09/21 00:53:54;;;;;;;1.42;1.07;;;;;;;10.20;74.67;99888.26;1676359;85;21000;-72
2021/09/21 00:56:22;;;;;;;2.35;1.20;;;;;;;10.18;74.61;99888.39;1676864;85;21017;-72
2021/09/21 00:58:50;;;;;;;1.32;1.10;;;;;;;10.17;74.64;99893.81;1672579;84;20969;-71
2021/09/21 01:01:19;;;;;;;2.25;1.40;;;;;;;10.15;74.56;99893.95;1668003;85;20955;-72
2021/09/21 01:03:47;;;;;;;3.50;1.30;;;;;;;10.10;74.62;99883.41;1668993;85;21025;-71
2021/09/21 01:06:15;;;;;;;1.98;1.45;;;;;;;10.10;74.75;99884.73;1683121;85;21016;-73
2021/09/21 01:08:44;;;;;;;1.95;1.20;;;;;;;10.09;74.72;99891.81;1683204;84;21036;-72
2021/09/21 01:11:12;;;;;;;1.98;1.20;;;;;;;10.06;74.69;99894.73;1683294;85;20964;-72
2021/09/21 01:13:39;;;;;;;1.85;1.10;;;;;;;10.03;74.73;99889.69;1684529;84;21138;-72
2021/09/21 01:16:05;;;;;;;2.30;0.95;;;;;;;10.03;74.82;99894.48;1681562;85;22173;-72
2021/09/21 01:18:33;;;;;;;4.08;1.50;;;;;;;10.01;74.91;99889.82;1680482;84;21405;-72
2021/09/21 01:21:05;;;;;;;1.82;1.20;;;;;;;10.04;74.94;99887.43;1682171;85;21020;-72
2021/09/21 01:23:32;;;;;;;1.30;1.00;;;;;;;10.03;74.88;99890.52;1681269;84;21001;-72
2021/09/21 01:25:59;;;;;;;1.47;0.80;;;;;;;10.02;74.93;99884.89;1683139;84;20960;-72
2021/09/21 01:28:25;;;;;;;1.62;1.10;;;;;;;10.01;74.89;99888.98;1682930;84;22126;-73
2021/09/21 01:30:53;;;;;;;1.17;0.88;;;;;;;10.03;74.95;99886.56;1682387;84;21072;-72
2021/09/21 01:33:21;;;;;;;1.70;0.90;;;;;;;10.06;74.92;99894.73;1662054;85;20945;-73
2021/09/21 01:35:48;;;;;;;1.52;1.00;;;;;;;10.06;74.84;99893.89;1680758;84;20973;-72
2021/09/21 01:38:15;;;;;;;0.62;0.60;;;;;;;10.03;74.79;99892.33;1682684;85;21071;-72
2021/09/21 01:40:41;;;;;;;1.95;0.60;;;;;;;10.01;74.71;99892.95;1681085;85;22204;-72
2021/09/21 01:43:08;;;;;;;0.80;0.65;;;;;;;9.98;74.74;99893.22;1681613;84;20965;-73
2021/09/21 01:45:34;;;;;;;0.88;0.62;;;;;;;9.95;74.84;99892.16;1679815;85;21064;-72
2021/09/21 01:48:01;;;;;;;1.02;0.70;;;;;;;9.92;74.82;99891.92;1684264;85;21016;-72
2021/09/21 01:50:33;;;;;;;1.67;0.70;;;;;;;9.90;74.85;99890.38;1683778;85;21006;-72
2021/09/21 01:53:02;;;;;;;0.60;0.60;;;;;;;9.89;74.88;99895.31;1683005;85;21900;-72
2021/09/21 02:00:55;;;;;;;0.60;0.60;;;;;;;9.78;75.76;99884.83;1566117;90;21116;-72
2021/09/21 02:03:23;;;;;;;0.62;0.50;;;;;;;9.69;76.03;99886.43;1674795;84;21024;-72
2021/09/21 02:05:50;;;;;;;2.00;0.60;;;;;;;9.68;76.28;99879.48;1674655;84;21834;-73
2021/09/21 02:08:17;;;;;;;1.20;0.60;;;;;;;9.68;76.55;99882.95;1671208;84;21060;-72
2021/09/21 02:10:44;;;;;;;0.50;0.40;;;;;;;9.67;76.79;99881.28;1668246;85;21020;-73
2021/09/21 02:13:12;;;;;;;0.80;0.57;;;;;;;9.64;77.03;99885.48;1631497;86;20981;-72
2021/09/21 02:15:40;;;;;;;1.77;0.60;;;;;;;9.63;77.25;99882.48;1693255;84;21412;-73
2021/09/21 02:18:09;;;;;;;1.12;0.60;;;;;;;9.65;77.53;99883.67;1692605;83;20965;-72
2021/09/21 02:20:36;;;;;;;1.55;0.95;;;;;;;9.65;77.72;99887.63;1693175;83;21043;-72
2021/09/21 02:23:03;;;;;;;1.50;0.93;;;;;;;9.64;77.84;99884.16;1693561;84;21048;-72
2021/09/21 02:25:29;;;;;;;1.02;0.70;;;;;;;9.62;78.07;99883.45;1691783;84;21098;-72
2021/09/21 02:27:57;;;;;;;1.57;0.85;;;;;;;9.55;78.21;99892.83;1680080;84;21004;-72
2021/09/21 02:30:23;;;;;;;0.50;0.50;;;;;;;9.51;78.38;99886.16;1679832;85;22270;-72
2021/09/21 02:32:49;;;;;;;1.05;0.65;;;;;;;9.52;78.50;99892.27;1631756;87;20981;-72
2021/09/21 02:35:18;;;;;;;1.25;0.90;;;;;;;9.50;78.59;99895.51;1676155;85;21061;-72
2021/09/21 02:37:46;;;;;;;0.80;0.80;;;;;;;9.42;78.75;99895.66;1646923;87;21002;-72
2021/09/21 02:40:14;;;;;;;0.95;0.93;;;;;;;9.37;78.91;99901.80;1665252;84;21042;-72
2021/09/21 02:42:41;;;;;;;1.25;1.15;;;;;;;9.34;79.15;99905.14;1693212;84;22887;-72
2021/09/21 02:45:08;;;;;;;1.30;1.20;;;;;;;9.31;79.25;99904.92;1693122;84;21460;-72
2021/09/21 02:47:35;;;;;;;1.75;1.50;;;;;;;9.27;79.39;99898.24;1690892;84;21028;-72
2021/09/21 02:50:01;;;;;;;3.05;1.60;;;;;;;9.20;79.27;99902.81;1692159;84;21646;-72
2021/09/21 02:52:27;;;;;;;2.05;1.90;;;;;;;9.12;79.33;99906.06;1693021;84;21028;-72
2021/09/21 02:54:54;;;;;;;2.12;1.92;;;;;;;9.10;79.41;99903.55;1684321;84;22204;-72
2021/09/21 02:57:20;;;;;;;2.45;2.20;;;;;;;9.07;79.49;99907.77;1660574;84;20977;-72
2021/09/21 02:59:47;;;;;;;4.47;2.42;;;;;;;9.05;79.51;99912.30;1676040;85;21044;-72
2021/09/21 03:02:15;;;;;;;4.92;2.70;;;;;;;9.04;79.56;99925.11;1676520;85;21036;-72
2021/09/21 03:04:50;;;;;;;3.67;2.30;;;;;;;9.02;79.52;99922.25;1676573;85;21605;-72
2021/09/21 03:07:13;;;;;;;4.78;2.40;;;;;;;8.98;79.57;99916.41;1674471;85;21847;-73
2021/09/21 03:17:41;;;;;;;2.47;2.12;;;;;;;8.87;79.61;99943.56;1693496;83;21028;-71
2021/09/21 03:20:08;;;;;;;3.98;2.35;;;;;;;8.79;79.66;99945.16;1689987;84;22204;-72
2021/09/21 03:22:36;;;;;;;2.10;1.90;;;;;;;8.71;79.62;99952.34;1642922;84;21009;-71
2021/09/21 03:25:04;;;;;;;2.92;2.50;;;;;;;8.65;79.63;99959.39;1680954;84;21728;-72
2021/09/21 03:27:30;;;;;;;3.17;2.70;;;;;;;8.59;79.62;99958.56;1660987;84;21080;-71
2021/09/21 03:29:57;;;;;;;3.20;2.90;;;;;;;8.57;79.72;99961.77;1614957;86;21080;-73
2021/09/21 03:32:25;;;;;;;2.70;2.50;;;;;;;8.53;79.82;99962.98;1693691;84;21774;-71
2021/09/21 03:34:51;;;;;;;3.00;2.70;;;;;;;8.50;79.89;99965.86;1692718;84;20944;-71
2021/09/21 03:37:18;;;;;;;3.40;3.10;;;;;;;8.50;80.11;99964.55;1691806;84;21029;-71
2021/09/21 03:39:45;;;;;;;3.40;2.85;;;;;;;8.49;80.18;99962.84;1693432;84;21044;-71
2021/09/21 03:42:12;;;;;;;4.03;3.30;;;;;;;8.49;80.23;99973.37;1693444;83;21025;-71
2021/09/21 03:44:39;;;;;;;3.98;3.30;;;;;;;8.49;80.21;99974.23;1693073;84;22844;-71
2021/09/21 03:47:07;;;;;;;4.33;3.60;;;;;;;8.49;80.20;99978.19;1671563;84;21049;-71
2021/09/21 03:49:35;;;;;;;3.60;3.30;;;;;;;8.45;80.12;99972.78;1665056;84;21017;-71
2021/09/21 03:52:01;;;;;;;4.30;3.62;;;;;;;8.40;79.97;99974.94;1673858;84;21487;-71
2021/09/21 03:54:28;;;;;;;18.00;15.95;;;;;;;8.36;79.91;99984.48;1631768;87;21108;-71
2021/09/21 03:56:56;;;;;;;13.48;12.07;;;;;;;8.31;80.02;99976.92;1630571;86;21053;-72
2021/09/21 03:59:25;;;;;;;74.77;44.35;;;;;;;8.29;80.05;99974.38;1634953;87;21049;-71
2021/09/21 04:01:52;;;;;;;6.60;5.67;;;;;;;8.27;80.02;99985.51;1676886;85;21032;-71
2021/09/21 04:04:18;;;;;;;4.83;4.33;;;;;;;8.26;79.99;99983.00;1677116;84;21047;-71
2021/09/21 04:06:49;;;;;;;5.70;5.20;;;;;;;8.22;79.96;99975.83;1677038;85;21046;-72
2021/09/21 04:09:16;;;;;;;5.40;4.90;;;;;;;8.24;80.02;99982.28;1656897;85;21851;-72
2021/09/21 04:11:42;;;;;;;5.72;5.22;;;;;;;8.22;79.99;99977.63;1632175;87;21003;-72
2021/09/21 04:14:09;;;;;;;6.65;6.05;;;;;;;8.23;80.06;99989.82;1655601;86;21008;-72
2021/09/21 04:16:37;;;;;;;6.15;5.55;;;;;;;8.18;79.95;99990.62;1691594;84;20982;-72
2021/09/21 04:19:04;;;;;;;6.20;5.65;;;;;;;8.12;79.79;99989.80;1677657;84;21491;-72
2021/09/21 04:21:32;;;;;;;6.10;5.50;;;;;;;8.09;79.85;99993.95;1686992;84;21379;-72
2021/09/21 04:23:59;;;;;;;6.53;5.62;;;;;;;8.07;79.84;99989.30;1642399;87;21402;-72
2021/09/21 04:26:25;;;;;;;5.67;5.17;;;;;;;8.06;79.83;99989.77;1674882;85;21459;-72
2021/09/21 04:28:51;;;;;;;5.33;4.83;;;;;;;8.01;79.82;99984.87;1677365;85;21612;-72
2021/09/21 04:31:23;;;;;;;5.35;4.70;;;;;;;8.02;79.69;99985.23;1677169;85;21000;-71
2021/09/21 04:33:49;;;;;;;5.47;4.97;;;;;;;8.00;79.70;99996.31;1677355;84;22194;-72
2021/09/21 04:36:16;;;;;;;5.00;4.50;;;;;;;7.99;79.68;99993.80;1677156;85;21029;-71
2021/09/21 04:38:43;;;;;;;5.40;4.90;;;;;;;8.00;79.63;99995.00;1631388;85;21044;-72
2021/09/21 04:41:11;;;;;;;6.45;4.47;;;;;;;8.02;79.60;100005.43;1652477;85;21020;-72
2021/09/21 04:43:39;;;;;;;4.35;3.95;;;;;;;8.01;79.40;100003.76;1676524;85;21045;-72
2021/09/21 04:46:06;;;;;;;5.62;4.25;;;;;;;7.99;79.01;100000.37;1677119;85;22814;-72
2021/09/21 04:48:32;;;;;;;5.47;4.65;;;;;;;8.00;79.11;99995.48;1675732;84;21322;-72
2021/09/21 04:50:59;;;;;;;6.22;4.58;;;;;;;8.01;79.19;99997.18;1677125;84;21053;-72
2021/09/21 04:53:25;;;;;;;4.22;3.75;;;;;;;8.04;79.29;99999.09;1677312;85;21022;-71
2021/09/21 04:55:52;;;;;;;5.05;4.12;;;;;;;8.09;79.27;99997.42;1676895;84;20957;-72
2021/09/21 04:58:18;;;;;;;3.50;3.20;;;;;;;8.11;79.16;100002.11;1675436;85;21717;-72
2021/09/21 05:00:45;;;;;;;3.52;3.22;;;;;;;8.12;78.89;100004.27;1676915;83;21005;-73
2021/09/21 05:03:12;;;;;;;4.62;3.30;;;;;;;8.01;78.46;100000.65;1677540;84;21005;-73
2021/09/21 05:05:39;;;;;;;4.33;3.17;;;;;;;7.97;78.31;100003.60;1677135;85;21016;-73
2021/09/21 05:08:07;;;;;;;4.60;3.20;;;;;;;7.93;78.32;100010.89;1676662;84;20981;-72
2021/09/21 05:10:34;;;;;;;3.60;3.00;;;;;;;7.89;78.28;100003.33;1673944;85;21868;-72
2021/09/21 05:13:00;;;;;;;4.20;3.10;;;;;;;7.85;78.24;100000.58;1675746;85;21513;-72
2021/09/21 05:15:27;;;;;;;3.25;2.92;;;;;;;7.86;78.32;100010.14;1677050;85;21423;-72
2021/09/21 05:17:53;;;;;;;4.15;2.92;;;;;;;7.84;78.12;100005.48;1677112;85;21053;-73
2021/09/21 05:20:20;;;;;;;4.05;3.00;;;;;;;7.83;77.98;100009.91;1677181;85;21004;-72
2021/09/21 05:22:52;;;;;;;3.90;3.02;;;;;;;7.83;77.87;100003.33;1676760;84;21500;-74
2021/09/21 05:25:18;;;;;;;3.47;3.10;;;;;;;7.86;77.72;100014.92;1676710;84;21485;-73
2021/09/21 05:27:44;;;;;;;4.15;2.90;;;;;;;7.87;77.53;100013.13;1676083;85;21443;-71
2021/09/21 05:30:13;;;;;;;2.95;2.65;;;;;;;7.88;77.48;100010.86;1676899;84;20991;-74
2021/09/21 05:32:40;;;;;;;5.97;3.00;;;;;;;7.90;77.61;100005.84;1676657;85;21036;-72
2021/09/21 05:35:08;;;;;;;4.30;2.60;;;;;;;7.94;77.53;100013.05;1676851;85;22220;-75
2021/09/21 05:37:34;;;;;;;3.67;3.17;;;;;;;7.97;77.54;100008.86;1676635;85;21115;-72
2021/09/21 05:40:01;;;;;;;3.52;3.22;;;;;;;8.00;77.50;100016.52;1674056;85;20962;-73
2021/09/21 05:42:27;;;;;;;3.45;3.10;;;;;;;8.05;77.34;100018.34;1677034;84;21005;-73
2021/09/21 05:44:54;;;;;;;4.83;3.20;;;;;;;8.09;77.32;100017.63;1676658;85;21040;-73
2021/09/21 05:47:21;;;;;;;3.22;2.90;;;;;;;8.14;77.09;100015.50;1676690;84;22209;-72
2021/09/21 05:49:47;;;;;;;3.17;2.70;;;;;;;8.16;77.13;100019.69;1675392;85;21012;-71
2021/09/21 05:52:13;;;;;;;3.17;2.85;;;;;;;8.18;76.82;100023.52;1669020;85;21042;-71
2021/09/21 05:54:40;;;;;;;4.22;3.05;;;;;;;8.15;76.58;100023.28;1675243;84;21053;-73
2021/09/21 05:57:06;;;;;;;3.92;3.10;;;;;;;8.10;76.47;100028.51;1669934;85;21115;-74
2021/09/21 05:59:32;;;;;;;3.58;2.50;;;;;;;8.09;76.68;100039.98;1671290;84;21832;-72
2021/09/21 06:01:59;;;;;;;3.77;3.02;;;;;;;8.09;76.41;100032.09;1659450;85;21033;-72
2021/09/21 06:04:25;;;;;;;3.33;2.83;;;;;;;8.08;76.31;100032.57;1671543;85;21035;-72
2021/09/21 06:06:52;;;;;;;3.17;2.77;;;;;;;8.08;76.14;100033.05;1660336;85;21020;-72
2021/09/21 06:09:18;;;;;;;3.65;2.40;;;;;;;8.12;76.22;100038.46;1644193;87;20993;-71
2021/09/21 06:11:45;;;;;;;3.33;2.85;;;;;;;8.16;75.85;100046.48;1643996;87;21863;-72
2021/09/21 06:14:11;;;;;;;3.62;2.83;;;;;;;8.17;75.88;100049.46;1652446;85;21495;-73
2021/09/21 06:16:39;;;;;;;3.47;2.42;;;;;;;8.21;75.89;100048.30;1671389;85;20956;-71
2021/09/21 06:19:05;;;;;;;2.60;2.10;;;;;;;8.25;75.88;100047.94;1671505;85;21036;-72
2021/09/21 06:21:33;;;;;;;3.15;2.72;;;;;;;8.32;75.88;100053.59;1671329;85;21436;-70
2021/09/21 06:24:00;;;;;;;3.08;2.40;;;;;;;8.36;75.64;100058.17;1670504;86;21748;-72
2021/09/21 06:26:28;;;;;;;4.83;2.25;;;;;;;8.37;75.16;100055.90;1670278;85;21000;-72
2021/09/21 06:28:55;;;;;;;2.33;2.12;;;;;;;8.38;74.95;100054.94;1666129;85;20978;-72
2021/09/21 06:31:21;;;;;;;2.22;1.95;;;;;;;8.42;74.81;100057.23;1663557;86;21049;-72
2021/09/21 06:33:49;;;;;;;3.30;1.98;;;;;;;8.47;74.56;100055.08;1663917;86;20962;-72
2021/09/21 06:36:17;;;;;;;2.62;2.00;;;;;;;8.61;74.23;100047.47;1663694;86;22179;-72
2021/09/21 06:38:43;;;;;;;3.67;2.70;;;;;;;8.74;73.89;100041.61;1663944;86;21064;-72
2021/09/21 06:41:10;;;;;;;2.80;2.42;;;;;;;8.78;73.14;100042.20;1670412;84;21025;-72
2021/09/21 06:43:36;;;;;;;2.20;2.00;;;;;;;8.79;72.69;100050.49;1671724;85;21094;-71
2021/09/21 06:46:04;;;;;;;2.20;1.98;;;;;;;8.79;71.73;100040.80;1671513;85;21452;-73
2021/09/21 06:48:30;;;;;;;2.47;1.50;;;;;;;8.81;71.59;100043.30;1671653;84;22907;-72
2021/09/21 06:50:57;;;;;;;1.90;1.70;;;;;;;8.84;70.57;100043.05;1668079;85;21065;-73
2021/09/21 06:53:23;;;;;;;2.42;2.00;;;;;;;8.90;70.54;100051.81;1683419;85;21443;-71
2021/09/21 06:55:50;;;;;;;1.92;1.57;;;;;;;8.97;70.19;100046.41;1674952;84;21051;-71
2021/09/21 06:58:16;;;;;;;3.62;1.50;;;;;;;9.07;69.76;100051.80;1684207;85;21012;-72
2021/09/21 07:00:45;;;;;;;1.70;1.60;;;;;;;9.10;69.06;100059.00;1681059;83;21838;-69
2021/09/21 07:03:12;;;;;;;5.28;1.75;;;;;;;9.12;68.23;100051.80;1680389;84;21038;-73
2021/09/21 07:05:39;;;;;;;2.65;1.65;;;;;;;9.10;67.62;100053.73;1678898;85;20949;-72
2021/09/21 07:08:06;;;;;;;3.40;2.30;;;;;;;9.14;67.92;100055.16;1680191;85;21115;-73
2021/09/21 07:10:32;;;;;;;3.58;2.60;;;;;;;9.21;67.96;100062.59;1679880;85;21134;-72
2021/09/21 07:12:59;;;;;;;3.60;3.08;;;;;;;9.21;67.12;100067.86;1683636;85;22674;-72
2021/09/21 07:15:25;;;;;;;4.60;3.08;;;;;;;9.18;66.71;100066.31;1684872;85;21415;-72
2021/09/21 07:17:53;;;;;;;3.02;2.20;;;;;;;9.15;67.06;100073.95;1682191;84;20982;-70
2021/09/21 07:20:22;;;;;;;3.60;2.83;;;;;;;9.17;67.08;100073.86;1682874;84;20973;-69
2021/09/21 07:22:48;;;;;;;2.98;2.37;;;;;;;9.16;67.04;100067.72;1685223;84;21403;-70
2021/09/21 07:25:17;;;;;;;2.98;2.20;;;;;;;9.17;67.35;100063.32;1684639;84;21789;-71
2021/09/21 07:27:44;;;;;;;3.27;2.90;;;;;;;9.18;67.07;100065.83;1685268;84;20941;-71
2021/09/21 07:30:14;;;;;;;3.72;2.90;;;;;;;9.21;67.19;100067.86;1685066;84;21037;-71
2021/09/21 07:32:41;;;;;;;3.37;2.72;;;;;;;9.21;66.99;100067.37;1683615;84;20968;-70
2021/09/21 07:35:08;;;;;;;2.30;1.95;;;;;;;9.20;67.09;100076.72;1684712;85;21065;-72
2021/09/21 07:37:35;;;;;;;2.25;1.82;;;;;;;9.20;67.21;100066.18;1680766;85;22834;-71
2021/09/21 07:40:05;;;;;;;2.80;1.87;;;;;;;9.25;67.10;100067.96;1681989;83;21026;-70
2021/09/21 07:42:32;;;;;;;2.35;1.70;;;;;;;9.33;67.25;100067.72;1701137;83;21404;-70
2021/09/21 07:45:00;;;;;;;2.55;1.85;;;;;;;9.49;67.44;100059.92;1680657;85;21603;-70
2021/09/21 07:47:27;;;;;;;2.92;2.02;;;;;;;9.62;67.04;100060.13;1683992;85;21060;-70
2021/09/21 07:49:54;;;;;;;2.62;1.75;;;;;;;9.69;66.46;100062.63;1683878;85;21834;-70
2021/09/21 07:52:22;;;;;;;2.15;1.60;;;;;;;9.71;65.98;100067.78;1680396;84;20965;-70
2021/09/21 07:54:48;;;;;;;2.80;1.55;;;;;;;9.71;65.49;100063.83;1680259;83;20962;-70
2021/09/21 07:57:16;;;;;;;1.40;1.25;;;;;;;9.77;65.73;100062.50;1684554;85;21193;-70
2021/09/21 07:59:45;;;;;;;2.52;1.25;;;;;;;9.83;65.65;100058.03;1680480;85;21539;-71
2021/09/21 08:02:12;;;;;;;1.80;1.40;;;;;;;9.91;65.52;100060.88;1680108;84;22282;-70
2021/09/21 08:04:39;;;;;;;1.55;1.30;;;;;;;9.94;65.15;100059.30;1684725;85;21405;-69
2021/09/21 08:07:07;;;;;;;1.40;1.30;;;;;;;9.95;64.75;100051.78;1685127;85;20996;-71
2021/09/21 08:09:36;;;;;;;2.58;1.50;;;;;;;9.91;64.24;100054.29;1673926;85;20988;-70
2021/09/21 08:12:05;;;;;;;2.22;1.30;;;;;;;9.85;64.34;100057.45;1682322;84;21627;-71
2021/09/21 08:14:36;;;;;;;1.92;1.35;;;;;;;9.82;64.85;100057.19;1680394;84;22825;-70
2021/09/21 08:17:00;;;;;;;4.15;1.75;;;;;;;9.81;64.57;100059.48;1679956;84;20970;-71
2021/09/21 08:19:28;;;;;;;2.80;1.62;;;;;;;9.78;64.65;100061.05;1662562;85;21045;-69
2021/09/21 08:21:55;;;;;;;2.50;1.85;;;;;;;9.81;65.14;100067.87;1668373;85;21036;-71
2021/09/21 08:24:23;;;;;;;3.33;1.80;;;;;;;9.85;64.92;100061.41;1692931;84;21371;-70
2021/09/21 08:26:49;;;;;;;2.15;1.70;;;;;;;9.85;64.27;100060.09;1703036;84;21753;-70
2021/09/21 08:29:16;;;;;;;3.08;1.98;;;;;;;9.82;64.24;100068.23;1671245;85;21427;-71
2021/09/21 08:31:44;;;;;;;2.20;1.80;;;;;;;9.72;64.00;100062.38;1647590;86;21062;-71
2021/09/21 08:34:11;;;;;;;2.10;1.70;;;;;;;9.67;64.26;100067.20;1663604;86;21502;-71
2021/09/21 08:36:38;;;;;;;2.52;1.98;;;;;;;9.66;64.17;100064.69;1666833;85;20996;-71
2021/09/21 08:39:04;;;;;;;3.50;2.00;;;;;;;9.65;64.50;100059.03;1669510;85;22252;-72
2021/09/21 08:41:31;;;;;;;2.47;1.95;;;;;;;9.68;64.72;100057.00;1661288;84;20977;-71
2021/09/21 08:43:58;;;;;;;1.55;1.40;;;;;;;9.73;64.64;100053.50;1675649;84;21536;-69
2021/09/21 08:46:27;;;;;;;1.55;1.40;;;;;;;9.83;64.51;100053.59;1663588;86;20982;-70
2021/09/21 08:48:54;;;;;;;1.42;1.10;;;;;;;10.03;64.16;100048.00;1663514;85;21114;-72
2021/09/21 08:51:21;;;;;;;1.57;1.37;;;;;;;10.20;63.31;100043.49;1671638;85;21802;-71
2021/09/21 08:53:47;;;;;;;1.60;1.50;;;;;;;10.40;62.01;100045.81;1665617;85;21493;-70
2021/09/21 08:56:16;;;;;;;1.57;1.22;;;;;;;10.54;61.78;100039.39;1646649;85;21076;-70
2021/09/21 08:58:42;;;;;;;2.02;1.20;;;;;;;10.64;60.96;100042.09;1663486;85;20999;-72
2021/09/21 09:01:12;;;;;;;1.07;0.98;;;;;;;10.62;60.02;100040.91;1644338;87;21444;-70
2021/09/21 09:03:39;;;;;;;1.75;1.00;;;;;;;10.52;59.53;100046.62;1644110;87;22652;-70
2021/09/21 09:06:09;;;;;;;1.30;1.00;;;;;;;10.42;59.77;100058.44;1669233;85;21001;-70
2021/09/21 09:08:37;;;;;;;2.42;0.88;;;;;;;10.34;60.07;100050.31;1667440;85;21014;-68
2021/09/21 09:11:22;;;;;;;1.00;0.90;;;;;;;10.33;60.16;100049.95;1663691;86;21478;-68
2021/09/21 09:13:53;;;;;;;1.75;1.07;;;;;;;10.27;60.04;100049.14;1665918;85;20962;-67
2021/09/21 09:16:22;;;;;;;1.30;0.80;;;;;;;10.26;60.49;100052.27;1664638;85;21749;-68
2021/09/21 09:19:03;;;;;;;0.95;0.60;;;;;;;10.31;60.85;100059.78;1663492;86;20986;-69
2021/09/21 09:21:34;;;;;;;1.62;0.78;;;;;;;10.41;60.83;100067.29;1659174;84;20994;-69
2021/09/21 09:24:01;;;;;;;1.40;0.80;;;;;;;10.43;60.32;100060.59;1668482;85;21449;-68
2021/09/21 09:26:31;;;;;;;1.72;1.00;;;;;;;10.41;60.58;100058.05;1650106;85;21028;-70
2021/09/21 09:28:56;;;;;;;2.15;0.80;;;;;;;10.37;60.03;100055.81;1669939;84;21846;-68
2021/09/21 09:31:34;;;;;;;1.27;0.60;;;;;;;10.28;59.81;100059.56;1669485;85;20962;-68
2021/09/21 09:34:26;;;;;;;1.45;0.80;;;;;;;10.21;60.13;100059.68;1650850;85;20985;-68
2021/09/21 09:36:58;;;;;;;0.88;0.60;;;;;;;10.17;60.62;100060.08;1671332;85;21026;-69
2021/09/21 09:39:28;;;;;;;1.65;1.10;;;;;;;10.13;61.17;100058.15;1671733;84;21055;-68
2021/09/21 09:41:57;;;;;;;2.30;1.07;;;;;;;10.11;61.30;100056.61;1671595;85;21789;-68
2021/09/21 09:44:27;;;;;;;1.92;1.10;;;;;;;10.10;61.23;100059.73;1670405;85;21057;-69
2021/09/21 09:47:00;;;;;;;2.55;1.20;;;;;;;10.10;61.01;100059.73;1651981;85;20973;-68
2021/09/21 09:49:34;;;;;;;2.92;1.92;;;;;;;10.13;60.97;100059.95;1669718;85;22310;-69
2021/09/21 09:52:10;;;;;;;1.75;1.40;;;;;;;10.12;60.38;100063.08;1671299;85;20964;-69
2021/09/21 09:54:38;;;;;;;1.98;1.42;;;;;;;10.07;60.20;100064.44;1670732;84;22952;-68
2021/09/21 09:57:05;;;;;;;1.98;1.57;;;;;;;10.02;60.48;100063.48;1668098;85;21032;-69
2021/09/21 09:59:32;;;;;;;2.40;1.10;;;;;;;9.99;60.66;100071.17;1663584;85;21023;-68
2021/09/21 10:01:58;;;;;;;2.52;1.00;;;;;;;9.97;60.69;100070.95;1687778;83;21031;-68
2021/09/21 10:04:26;;;;;;;0.80;0.80;;;;;;;9.95;60.88;100077.67;1662218;86;21492;-68
2021/09/21 10:06:52;;;;;;;0.90;0.80;;;;;;;9.91;61.21;100079.35;1691955;84;21799;-68
2021/09/21 10:09:19;;;;;;;0.82;0.80;;;;;;;9.87;61.49;100088.01;1661810;86;20954;-68
2021/09/21 10:11:50;;;;;;;1.15;0.82;;;;;;;9.81;61.72;100079.74;1646143;85;21083;-68
2021/09/21 10:14:20;;;;;;;1.80;0.70;;;;;;;9.76;61.95;100072.22;1691408;84;21462;-68
2021/09/21 10:17:02;;;;;;;1.17;0.55;;;;;;;9.71;61.92;100087.08;1690995;84;21015;-68
2021/09/21 10:19:29;;;;;;;1.20;0.90;;;;;;;9.67;62.01;100088.30;1661613;86;21889;-68
2021/09/21 10:21:56;;;;;;;2.35;1.60;;;;;;;9.64;62.14;100085.88;1645593;87;21463;-69
2021/09/21 10:24:42;;;;;;;1.62;1.40;;;;;;;9.67;62.54;100084.83;1672479;85;21532;-68
2021/09/21 10:27:13;;;;;;;4.47;1.62;;;;;;;9.74;62.64;100088.14;1672546;85;21114;-67
2021/09/21 10:29:42;;;;;;;2.10;1.70;;;;;;;9.80;62.38;100091.26;1691935;84;20928;-67
2021/09/21 10:32:14;;;;;;;1.80;1.20;;;;;;;9.81;61.88;100092.93;1661254;86;21868;-68
2021/09/21 10:34:46;;;;;;;1.25;0.80;;;;;;;9.77;62.05;100093.67;1690980;84;21008;-69
2021/09/21 10:37:13;;;;;;;1.12;0.75;;;;;;;9.67;62.18;100097.53;1691588;84;20969;-67
2021/09/21 10:39:41;;;;;;;1.10;0.70;;;;;;;9.56;62.63;100099.34;1644957;87;21090;-69
2021/09/21 10:42:10;;;;;;;1.27;0.72;;;;;;;9.52;63.10;100107.12;1673912;85;21174;-68
2021/09/21 10:44:38;;;;;;;1.85;0.70;;;;;;;9.51;63.69;100103.65;1691043;84;23225;-68
2021/09/21 10:47:07;;;;;;;1.85;1.10;;;;;;;9.52;63.39;100103.17;1615888;87;21499;-69
2021/09/21 10:49:38;;;;;;;1.50;1.00;;;;;;;9.48;63.89;100104.38;1690107;84;21118;-69
2021/09/21 10:52:11;;;;;;;1.72;0.90;;;;;;;9.54;64.47;100103.39;1675972;84;21027;-69
2021/09/21 10:54:54;;;;;;;0.85;0.53;;;;;;;9.68;64.47;100099.68;1687149;83;21027;-68
2021/09/21 10:57:40;;;;;;;0.85;0.50;;;;;;;9.75;64.34;100099.08;1665539;85;21811;-68
2021/09/21 11:00:19;;;;;;;0.50;0.40;;;;;;;9.80;63.88;100103.12;1686384;84;21039;-68
2021/09/21 11:02:52;;;;;;;0.90;0.70;;;;;;;9.85;64.19;100087.78;1689012;84;21507;-68
2021/09/21 11:05:20;;;;;;;1.17;0.85;;;;;;;9.94;64.03;100095.79;1655132;86;21502;-68
2021/09/21 11:07:53;;;;;;;1.00;0.80;;;;;;;10.00;63.02;100089.99;1645273;87;21014;-69
2021/09/21 11:10:23;;;;;;;;;;;;;;;10.02;63.41;100088.55;1669024;84;20929;-69
2021/09/21 11:12:51;;;;;;;1.72;0.80;;;;;;;10.10;63.57;100092.72;1645330;85;47726;-69
2021/09/21 11:15:24;;;;;;;0.80;0.55;;;;;;;10.23;63.01;100080.24;1673937;84;20999;-69
2021/09/21 11:18:17;;;;;;;0.93;0.80;;;;;;;10.37;62.62;100080.41;1666235;84;21112;-68
2021/09/21 11:20:51;;;;;;;1.07;0.90;;;;;;;10.44;62.41;100081.58;1644362;86;21064;-68
2021/09/21 11:23:20;;;;;;;1.20;1.00;;;;;;;10.44;61.98;100083.38;1690366;84;22500;-69
2021/09/21 11:25:48;;;;;;;2.77;1.07;;;;;;;10.36;61.58;100075.26;1657974;85;21116;-67
2021/09/21 11:28:17;;;;;;;3.70;1.32;;;;;;;10.29;61.87;100080.20;1643895;87;21533;-68
2021/09/21 11:30:46;;;;;;;0.72;0.70;;;;;;;10.25;62.05;100083.59;1645693;87;21091;-68
2021/09/21 11:33:20;;;;;;;1.70;0.75;;;;;;;10.15;61.74;100078.68;1688573;84;20973;-67
2021/09/21 11:35:51;;;;;;;1.10;0.80;;;;;;;10.06;61.62;100091.79;1646053;87;21910;-67
2021/09/21 11:38:18;;;;;;;1.35;0.90;;;;;;;10.02;61.84;100097.78;1678691;84;21086;-67
2021/09/21 11:40:46;;;;;;;0.93;0.70;;;;;;;10.06;61.76;100093.95;1681993;84;21112;-67
2021/09/21 11:43:14;;;;;;;2.83;0.70;;;;;;;10.07;61.51;100093.46;1667757;84;20948;-67
2021/09/21 11:45:44;;;;;;;1.30;0.90;;;;;;;10.00;61.22;100090.48;1659848;86;20994;-66
2021/09/21 11:48:12;;;;;;;1.17;0.88;;;;;;;9.93;61.21;100087.48;1645045;87;22476;-66
2021/09/21 11:50:40;;;;;;;1.30;1.00;;;;;;;9.89;61.63;100094.47;1689980;84;21008;-67
2021/09/21 11:53:10;;;;;;;1.10;0.90;;;;;;;9.86;61.73;100094.73;1662681;86;21032;-66